sensor_id;sensor_type;location;lat;lon;timestamp;temperature;humidity
52439;DHT22;38359;53.150;6.504;2023-07-28T00:01:13;20.80;99.90
52439;DHT22;38359;53.150;6.504;2023-07-28T00:11:46;20.90;99.90
52439;DHT22;38359;53.150;6.504;2023-07-28T00:22:18;20.80;99.90
52439;DHT22;38359;53.150;6.504;2023-07-28T00:32:50;20.80;99.90
52439;DHT22;38359;53.150;6.504;2023-07-28T00:43:16;20.60;99.90
52439;DHT22;38359;53.150;6.504;2023-07-28T00:53:42;20.60;99.90
52439;DHT22;38359;53.150;6.504;2023-07-28T01:04:08;20.80;99.90
52439;DHT22;38359;53.150;6.504;2023-07-28T01:14:42;20.70;99.90
52439;DHT22;38359;53.150;6.504;2023-07-28T01:25:21;20.80;99.90
52439;DHT22;38359;53.150;6.504;2023-07-28T01:35:58;20.80;99.90
52439;DHT22;38359;53.150;6.504;2023-07-28T01:46:32;20.80;99.90
52439;DHT22;38359;53.150;6.504;2023-07-28T01:56:58;20.70;99.90
52439;DHT22;38359;53.150;6.504;2023-07-28T02:07:24;20.90;99.90
52439;DHT22;38359;53.150;6.504;2023-07-28T02:17:50;20.70;99.90
52439;DHT22;38359;53.150;6.504;2023-07-28T02:28:22;20.90;99.90
52439;DHT22;38359;53.150;6.504;2023-07-28T02:38:48;20.80;99.90
52439;DHT22;38359;53.150;6.504;2023-07-28T02:49:14;20.70;99.90
52439;DHT22;38359;53.150;6.504;2023-07-28T02:59:40;20.90;99.90
52439;DHT22;38359;53.150;6.504;2023-07-28T03:10:06;21.00;99.90
52439;DHT22;38359;53.150;6.504;2023-07-28T03:20:32;20.90;99.90
52439;DHT22;38359;53.150;6.504;2023-07-28T03:31:04;20.70;99.90
52439;DHT22;38359;53.150;6.504;2023-07-28T03:41:30;21.00;99.90
52439;DHT22;38359;53.150;6.504;2023-07-28T03:51:56;20.70;99.90
52439;DHT22;38359;53.150;6.504;2023-07-28T04:02:22;20.70;99.90
52439;DHT22;38359;53.150;6.504;2023-07-28T04:12:54;20.80;99.90
52439;DHT22;38359;53.150;6.504;2023-07-28T04:23:26;20.80;99.90
52439;DHT22;38359;53.150;6.504;2023-07-28T04:33:59;21.00;99.90
52439;DHT22;38359;53.150;6.504;2023-07-28T04:44:24;20.70;99.90
52439;DHT22;38359;53.150;6.504;2023-07-28T04:54:50;20.90;99.90
52439;DHT22;38359;53.150;6.504;2023-07-28T05:05:16;20.90;99.90
52439;DHT22;38359;53.150;6.504;2023-07-28T05:15:48;21.00;99.90
52439;DHT22;38359;53.150;6.504;2023-07-28T05:26:14;20.80;99.90
52439;DHT22;38359;53.150;6.504;2023-07-28T05:36:40;20.70;99.90
52439;DHT22;38359;53.150;6.504;2023-07-28T05:47:06;21.00;99.90
52439;DHT22;38359;53.150;6.504;2023-07-28T05:57:32;20.90;99.90
52439;DHT22;38359;53.150;6.504;2023-07-28T06:07:57;21.10;99.90
52439;DHT22;38359;53.150;6.504;2023-07-28T06:18:24;20.90;99.90
52439;DHT22;38359;53.150;6.504;2023-07-28T06:28:57;21.00;99.90
52439;DHT22;38359;53.150;6.504;2023-07-28T06:39:22;21.10;99.90
52439;DHT22;38359;53.150;6.504;2023-07-28T06:49:49;21.00;99.90
52439;DHT22;38359;53.150;6.504;2023-07-28T07:00:16;21.10;99.90
52439;DHT22;38359;53.150;6.504;2023-07-28T07:10:50;20.90;99.90
52439;DHT22;38359;53.150;6.504;2023-07-28T07:21:16;20.50;99.90
52439;DHT22;38359;53.150;6.504;2023-07-28T07:31:48;21.10;99.90
52439;DHT22;38359;53.150;6.504;2023-07-28T07:42:14;20.90;99.90
52439;DHT22;38359;53.150;6.504;2023-07-28T07:52:40;20.60;99.90
52439;DHT22;38359;53.150;6.504;2023-07-28T08:03:06;20.90;99.90
52439;DHT22;38359;53.150;6.504;2023-07-28T08:13:38;20.90;99.90
52439;DHT22;38359;53.150;6.504;2023-07-28T08:24:10;20.90;99.90
52439;DHT22;38359;53.150;6.504;2023-07-28T08:34:37;20.90;99.90
52439;DHT22;38359;53.150;6.504;2023-07-28T08:45:04;21.00;99.90
52439;DHT22;38359;53.150;6.504;2023-07-28T08:55:31;21.40;99.90
52439;DHT22;38359;53.150;6.504;2023-07-28T09:06:02;21.60;99.90
52439;DHT22;38359;53.150;6.504;2023-07-28T09:16:28;21.40;99.90
52439;DHT22;38359;53.150;6.504;2023-07-28T09:27:02;21.70;99.90
52439;DHT22;38359;53.150;6.504;2023-07-28T09:37:28;21.60;99.90
52439;DHT22;38359;53.150;6.504;2023-07-28T09:47:55;21.50;99.90
52439;DHT22;38359;53.150;6.504;2023-07-28T09:58:24;21.90;99.90
52439;DHT22;38359;53.150;6.504;2023-07-28T10:08:57;22.20;99.90
52439;DHT22;38359;53.150;6.504;2023-07-28T10:19:29;21.60;99.90
52439;DHT22;38359;53.150;6.504;2023-07-28T10:30:10;21.70;99.90
52439;DHT22;38359;53.150;6.504;2023-07-28T10:40:40;22.10;99.90
52439;DHT22;38359;53.150;6.504;2023-07-28T10:51:05;22.90;99.90
52439;DHT22;38359;53.150;6.504;2023-07-28T11:01:39;22.70;99.90
52439;DHT22;38359;53.150;6.504;2023-07-28T11:12:12;22.60;99.90
52439;DHT22;38359;53.150;6.504;2023-07-28T11:22:39;22.80;99.90
52439;DHT22;38359;53.150;6.504;2023-07-28T11:33:13;23.50;99.90
52439;DHT22;38359;53.150;6.504;2023-07-28T11:43:46;23.20;99.90
52439;DHT22;38359;53.150;6.504;2023-07-28T11:54:26;23.80;99.90
52439;DHT22;38359;53.150;6.504;2023-07-28T12:04:53;24.30;99.90
52439;DHT22;38359;53.150;6.504;2023-07-28T12:15:28;24.40;99.90
52439;DHT22;38359;53.150;6.504;2023-07-28T12:25:54;24.00;99.90
52439;DHT22;38359;53.150;6.504;2023-07-28T12:36:21;23.90;99.90
52439;DHT22;38359;53.150;6.504;2023-07-28T12:46:46;23.50;99.90
52439;DHT22;38359;53.150;6.504;2023-07-28T12:57:18;23.90;99.90
52439;DHT22;38359;53.150;6.504;2023-07-28T13:07:44;24.20;99.90
52439;DHT22;38359;53.150;6.504;2023-07-28T13:18:10;24.60;99.90
52439;DHT22;38359;53.150;6.504;2023-07-28T13:28:42;24.40;99.90
52439;DHT22;38359;53.150;6.504;2023-07-28T13:39:12;24.20;99.90
52439;DHT22;38359;53.150;6.504;2023-07-28T13:49:44;24.40;99.90
52439;DHT22;38359;53.150;6.504;2023-07-28T14:00:11;24.10;99.90
52439;DHT22;38359;53.150;6.504;2023-07-28T14:10:45;23.50;99.90
52439;DHT22;38359;53.150;6.504;2023-07-28T14:21:12;23.90;99.90
52439;DHT22;38359;53.150;6.504;2023-07-28T14:31:38;23.60;99.90
52439;DHT22;38359;53.150;6.504;2023-07-28T14:42:04;24.50;99.90
52439;DHT22;38359;53.150;6.504;2023-07-28T14:52:30;24.20;99.90
52439;DHT22;38359;53.150;6.504;2023-07-28T15:02:55;25.40;99.90
52439;DHT22;38359;53.150;6.504;2023-07-28T15:13:21;25.10;99.90
52439;DHT22;38359;53.150;6.504;2023-07-28T15:23:54;24.40;99.90
52439;DHT22;38359;53.150;6.504;2023-07-28T15:34:20;24.00;99.90
52439;DHT22;38359;53.150;6.504;2023-07-28T15:44:46;23.70;99.90
52439;DHT22;38359;53.150;6.504;2023-07-28T15:55:12;23.50;99.90
52439;DHT22;38359;53.150;6.504;2023-07-28T16:05:45;23.40;99.90
52439;DHT22;38359;53.150;6.504;2023-07-28T16:16:10;24.80;99.90
52439;DHT22;38359;53.150;6.504;2023-07-28T16:26:50;25.50;99.90
52439;DHT22;38359;53.150;6.504;2023-07-28T16:37:15;23.80;99.90
52439;DHT22;38359;53.150;6.504;2023-07-28T16:47:41;24.70;99.90
52439;DHT22;38359;53.150;6.504;2023-07-28T16:58:07;24.00;99.90
52439;DHT22;38359;53.150;6.504;2023-07-28T17:08:40;24.30;99.90
52439;DHT22;38359;53.150;6.504;2023-07-28T17:19:19;24.50;99.90
52439;DHT22;38359;53.150;6.504;2023-07-28T17:29:45;24.50;99.90
52439;DHT22;38359;53.150;6.504;2023-07-28T17:40:11;24.40;99.90
52439;DHT22;38359;53.150;6.504;2023-07-28T17:50:37;24.40;99.90
52439;DHT22;38359;53.150;6.504;2023-07-28T18:01:03;25.70;99.90
52439;DHT22;38359;53.150;6.504;2023-07-28T18:11:35;23.60;99.90
52439;DHT22;38359;53.150;6.504;2023-07-28T18:22:01;22.80;99.90
52439;DHT22;38359;53.150;6.504;2023-07-28T18:32:27;22.80;99.90
52439;DHT22;38359;53.150;6.504;2023-07-28T18:42:53;22.60;99.90
52439;DHT22;38359;53.150;6.504;2023-07-28T18:53:19;22.50;99.90
52439;DHT22;38359;53.150;6.504;2023-07-28T19:03:44;22.40;99.90
52439;DHT22;38359;53.150;6.504;2023-07-28T19:14:10;22.30;99.90
52439;DHT22;38359;53.150;6.504;2023-07-28T19:24:42;22.20;99.90
52439;DHT22;38359;53.150;6.504;2023-07-28T19:35:08;22.20;99.90
52439;DHT22;38359;53.150;6.504;2023-07-28T19:45:34;22.40;99.90
52439;DHT22;38359;53.150;6.504;2023-07-28T19:56:00;22.50;99.90
52439;DHT22;38359;53.150;6.504;2023-07-28T20:06:26;22.40;99.90
52439;DHT22;38359;53.150;6.504;2023-07-28T20:16:52;22.40;99.90
52439;DHT22;38359;53.150;6.504;2023-07-28T20:27:24;22.30;99.90
52439;DHT22;38359;53.150;6.504;2023-07-28T20:37:50;22.10;99.90
52439;DHT22;38359;53.150;6.504;2023-07-28T20:48:16;21.90;99.90
52439;DHT22;38359;53.150;6.504;2023-07-28T20:58:43;21.90;99.90
52439;DHT22;38359;53.150;6.504;2023-07-28T21:09:15;22.00;99.90
52439;DHT22;38359;53.150;6.504;2023-07-28T21:19:54;21.80;99.90
52439;DHT22;38359;53.150;6.504;2023-07-28T21:30:20;21.50;99.90
52439;DHT22;38359;53.150;6.504;2023-07-28T21:40:52;21.50;99.90
52439;DHT22;38359;53.150;6.504;2023-07-28T21:51:24;21.40;99.90
52439;DHT22;38359;53.150;6.504;2023-07-28T22:01:50;21.40;99.90
52439;DHT22;38359;53.150;6.504;2023-07-28T22:12:16;21.40;99.90
52439;DHT22;38359;53.150;6.504;2023-07-28T22:22:48;21.10;99.90
52439;DHT22;38359;53.150;6.504;2023-07-28T22:33:14;20.90;99.90
52439;DHT22;38359;53.150;6.504;2023-07-28T22:43:40;20.70;99.90
52439;DHT22;38359;53.150;6.504;2023-07-28T22:54:12;20.30;99.90
52439;DHT22;38359;53.150;6.504;2023-07-28T23:04:38;20.30;99.90
52439;DHT22;38359;53.150;6.504;2023-07-28T23:15:04;20.20;99.90
52439;DHT22;38359;53.150;6.504;2023-07-28T23:25:37;20.30;99.90
52439;DHT22;38359;53.150;6.504;2023-07-28T23:36:03;20.20;99.90
52439;DHT22;38359;53.150;6.504;2023-07-28T23:46:29;20.20;99.90
52439;DHT22;38359;53.150;6.504;2023-07-28T23:56:55;20.30;99.90
